AirNav   Everest Fuels
 
 1187 users online  

15LS Port of Iberia Heliport
New Iberia, Louisiana, USA

GOING TO NEW IBERIA?


FAA INFORMATION EFFECTIVE 08 SEPTEMBER 2022

Location

FAA Identifier: 15LS
Lat/Long: 29-56-40.8000N 091-50-13.4000W
29-56.680000N 091-50.223333W
29.9446667,-91.8370556
(estimated)
Elevation: 7 ft. / 2 m (estimated)
From city: 4 miles S of NEW IBERIA, LA
Time zone: UTC -5 (UTC -6 during Standard Time)
Zip code: 70560

Heliport Operations

Heliport use: Private use. Permission required prior to landing
Activation date: 10/2005
Control tower: no
ARTCC: HOUSTON CENTER
FSS: DE RIDDER FLIGHT SERVICE STATION
Attendance: UNATNDD
Segmented circle: no

Heliport Communications

WX ASOS at ARA (6 nm NW): 133.325 (337-365-0128)
WX AWOS-3 at IYA (13 nm W): 118.875 (337-892-0526)
WX ASOS at LFT (17 nm NW): 134.05 ((337)262-2757)

Nearby radio navigation aids

VOR radial/distance  VOR name  Freq  Var
LFTr149/17.0LAFAYETTE VORTAC109.8003E
LLAr055/32.6WHITE LAKE VOR/DME114.9504E

 
NDB name  Hdg/Dist  Freq  Var  ID
ABBEVILLE113/16.423002EBNZ -... -. --..

Heliport Services

Runway Information

Helipad H1

Dimensions: 44 x 44 ft. / 13 x 13 m
Surface: concrete
Traffic pattern: leftleft

Heliport Ownership and Management from official FAA records

Ownership: Privately-owned
Owner: PORT OF IBERIA
PO BOX 9986
NEW IBERIA, LA 70567
Phone 337-364-1065
Manager: CRAIG ROMERO
PO BOX 9986
NEW IBERIA, LA 70567
Phone 337-364-1065

Additional Remarks

A52-H1 NUMEROUS OBSTRUCTIONS ALL SIDES OF HELIPORT.
FOR CD CTC LAFAYETTE APCH AT 337-262-2729, WHEN APCH CLSD CTC HOUSTON ARTCC AT 281-230-5622.

Instrument Procedures

There are no published instrument procedures at 15LS.

Some nearby airports with instrument procedures:

KARA - Acadiana Regional Airport (6 nm NW)
KIYA - Abbeville Chris Crusta Memorial Airport (13 nm W)
KLFT - Lafayette Regional Airport/Paul Fournet Field (17 nm NW)
KPTN - Harry P Williams Memorial Airport (30 nm SE)
KOPL - St Landry Parish Airport-Ahart Field (39 nm N)
 
Loc | Ops | Rwys | IFR | FBO | Links
Com | Nav | Svcs | Stats | Notes
Area around 15LS (Port of Iberia Heliport)
 
Road maps at: MapQuest Bing Google
 
Aerial photo
No photo
 
Sectional chart

 
Airport distance calculator
Flying to Port of Iberia Heliport? Find the distance to fly.

From to 15LS

Sunrise and sunset
Times for 28-Sep-2022
 Local
(UTC-5)
 Zulu
(UTC)
Morning civil twilight06:3611:36
Sunrise07:0012:00
Sunset18:5623:56
Evening civil twilight19:2000:20

Current date and time
Zulu (UTC)  29-Sep-2022 02:31:26
Local (UTC-5)  28-Sep-2022 21:31:26
 
METAR
KARA 
6nm NW 
290153Z AUTO 36007KT 10SM CLR 21/08 A3015 RMK AO2 SLP207 T02060083
K0R3 
13nm W 
118.875
No observation available
KIYA 
13nm W 
290215Z AUTO 36005KT 10SM CLR 20/07 A3016 RMK AO2 T01980065
KLFT 
18nm NW 
290153Z 02005KT 10SM CLR 20/09 A3016 RMK AO2 SLP211 T02000094
TAF
KARA 
6nm NW 
281723Z 2818/2918 05010G25KT P6SM SKC FM290100 01008KT P6SM SKC
KLFT 
18nm NW 
281723Z 2818/2918 04010G20KT P6SM SKC FM290100 01008KT P6SM SKC
NOTAMs
Click for the latest NOTAMs
NOTAMs are issued by the DoD/FAA and will open in a separate window not controlled by AirNav.

 

 
 

Would you like to see your business listed on this page?

 If your business provides an interesting product or service to pilots, flight crews, aircraft, or users of the Port of Iberia Heliport, you should consider listing it here.  To start the listing process, click on the button below
 
Add a business
 

Other Pages about Port of Iberia Heliport

Update a link
 
Copyright © AirNav, LLC. All rights reserved. Privacy Policy  Contact